sensor_id;sensor_type;location;lat;lon;timestamp;P1;durP1;ratioP1;P2;durP2;ratioP2
9970;SDS011;5026;51.494;11.974;2022-11-04T00:01:22;10.77;;;6.23;;
9970;SDS011;5026;51.494;11.974;2022-11-04T00:03:49;10.57;;;6.20;;
9970;SDS011;5026;51.494;11.974;2022-11-04T00:06:18;15.77;;;6.93;;
9970;SDS011;5026;51.494;11.974;2022-11-04T00:08:47;10.83;;;6.00;;
9970;SDS011;5026;51.494;11.974;2022-11-04T00:11:14;12.07;;;5.97;;
9970;SDS011;5026;51.494;11.974;2022-11-04T00:13:59;11.70;;;6.37;;
9970;SDS011;5026;51.494;11.974;2022-11-04T00:16:27;10.80;;;6.57;;
9970;SDS011;5026;51.494;11.974;2022-11-04T00:19:12;12.90;;;6.60;;
9970;SDS011;5026;51.494;11.974;2022-11-04T00:21:40;13.67;;;6.97;;
9970;SDS011;5026;51.494;11.974;2022-11-04T00:24:26;17.27;;;8.40;;
9970;SDS011;5026;51.494;11.974;2022-11-04T00:27:12;10.83;;;6.83;;
9970;SDS011;5026;51.494;11.974;2022-11-04T00:29:57;14.00;;;6.37;;
9970;SDS011;5026;51.494;11.974;2022-11-04T00:32:25;11.20;;;7.07;;
9970;SDS011;5026;51.494;11.974;2022-11-04T00:35:10;12.00;;;6.67;;
9970;SDS011;5026;51.494;11.974;2022-11-04T00:37:39;12.73;;;7.20;;
9970;SDS011;5026;51.494;11.974;2022-11-04T00:40:08;12.40;;;6.37;;
9970;SDS011;5026;51.494;11.974;2022-11-04T00:42:36;12.30;;;6.20;;
9970;SDS011;5026;51.494;11.974;2022-11-04T00:45:04;11.73;;;6.83;;
9970;SDS011;5026;51.494;11.974;2022-11-04T00:47:32;13.87;;;6.50;;
9970;SDS011;5026;51.494;11.974;2022-11-04T00:49:59;12.57;;;6.93;;
9970;SDS011;5026;51.494;11.974;2022-11-04T00:52:26;12.20;;;6.30;;
9970;SDS011;5026;51.494;11.974;2022-11-04T00:54:54;12.53;;;6.60;;
9970;SDS011;5026;51.494;11.974;2022-11-04T00:57:22;10.30;;;6.70;;
9970;SDS011;5026;51.494;11.974;2022-11-04T00:59:49;11.50;;;6.57;;
9970;SDS011;5026;51.494;11.974;2022-11-04T01:02:16;10.20;;;6.33;;
9970;SDS011;5026;51.494;11.974;2022-11-04T01:04:43;11.97;;;6.70;;
9970;SDS011;5026;51.494;11.974;2022-11-04T01:07:10;10.73;;;6.17;;
9970;SDS011;5026;51.494;11.974;2022-11-04T01:09:37;12.10;;;7.10;;
9970;SDS011;5026;51.494;11.974;2022-11-04T01:12:06;12.30;;;6.47;;
9970;SDS011;5026;51.494;11.974;2022-11-04T01:14:33;16.83;;;6.80;;
9970;SDS011;5026;51.494;11.974;2022-11-04T01:17:00;12.77;;;7.80;;
9970;SDS011;5026;51.494;11.974;2022-11-04T01:19:27;10.03;;;6.73;;
9970;SDS011;5026;51.494;11.974;2022-11-04T01:21:54;13.47;;;6.40;;
9970;SDS011;5026;51.494;11.974;2022-11-04T01:24:21;10.50;;;6.03;;
9970;SDS011;5026;51.494;11.974;2022-11-04T01:26:48;13.27;;;6.07;;
9970;SDS011;5026;51.494;11.974;2022-11-04T01:29:16;15.90;;;5.80;;
9970;SDS011;5026;51.494;11.974;2022-11-04T01:31:43;14.33;;;5.87;;
9970;SDS011;5026;51.494;11.974;2022-11-04T01:34:10;12.40;;;6.20;;
9970;SDS011;5026;51.494;11.974;2022-11-04T01:36:37;12.73;;;5.80;;
9970;SDS011;5026;51.494;11.974;2022-11-04T01:39:04;11.63;;;6.20;;
9970;SDS011;5026;51.494;11.974;2022-11-04T01:41:32;7.97;;;5.40;;
9970;SDS011;5026;51.494;11.974;2022-11-04T01:44:00;9.97;;;5.63;;
9970;SDS011;5026;51.494;11.974;2022-11-04T01:46:35;10.37;;;6.07;;
9970;SDS011;5026;51.494;11.974;2022-11-04T01:49:10;11.13;;;6.17;;
9970;SDS011;5026;51.494;11.974;2022-11-04T01:51:48;12.97;;;6.10;;
9970;SDS011;5026;51.494;11.974;2022-11-04T01:54:20;8.90;;;6.40;;
9970;SDS011;5026;51.494;11.974;2022-11-04T01:56:47;12.20;;;6.03;;
9970;SDS011;5026;51.494;11.974;2022-11-04T01:59:15;10.03;;;5.80;;
9970;SDS011;5026;51.494;11.974;2022-11-04T02:01:47;10.70;;;6.60;;
9970;SDS011;5026;51.494;11.974;2022-11-04T02:04:14;11.03;;;6.10;;
9970;SDS011;5026;51.494;11.974;2022-11-04T02:06:51;10.10;;;6.03;;
9970;SDS011;5026;51.494;11.974;2022-11-04T02:09:21;7.47;;;5.90;;
9970;SDS011;5026;51.494;11.974;2022-11-04T02:11:49;7.30;;;5.70;;
9970;SDS011;5026;51.494;11.974;2022-11-04T02:14:33;11.10;;;5.80;;
9970;SDS011;5026;51.494;11.974;2022-11-04T02:17:04;9.00;;;5.77;;
9970;SDS011;5026;51.494;11.974;2022-11-04T02:25:52;10.83;;;6.33;;
9970;SDS011;5026;51.494;11.974;2022-11-04T02:28:36;13.37;;;6.07;;
9970;SDS011;5026;51.494;11.974;2022-11-04T02:31:21;11.60;;;5.90;;
9970;SDS011;5026;51.494;11.974;2022-11-04T02:33:59;10.30;;;6.47;;
9970;SDS011;5026;51.494;11.974;2022-11-04T02:36:32;11.10;;;6.37;;
9970;SDS011;5026;51.494;11.974;2022-11-04T02:39:05;12.17;;;6.13;;
9970;SDS011;5026;51.494;11.974;2022-11-04T02:41:39;11.77;;;5.83;;
9970;SDS011;5026;51.494;11.974;2022-11-04T02:44:15;9.93;;;5.17;;
9970;SDS011;5026;51.494;11.974;2022-11-04T02:46:48;10.87;;;5.47;;
9970;SDS011;5026;51.494;11.974;2022-11-04T02:49:19;9.23;;;5.40;;
9970;SDS011;5026;51.494;11.974;2022-11-04T02:51:52;14.17;;;6.07;;
9970;SDS011;5026;51.494;11.974;2022-11-04T02:54:24;7.40;;;5.30;;
9970;SDS011;5026;51.494;11.974;2022-11-04T02:56:55;8.13;;;5.17;;
9970;SDS011;5026;51.494;11.974;2022-11-04T02:59:25;9.13;;;5.60;;
9970;SDS011;5026;51.494;11.974;2022-11-04T03:01:59;9.23;;;5.60;;
9970;SDS011;5026;51.494;11.974;2022-11-04T03:04:29;7.90;;;5.03;;
9970;SDS011;5026;51.494;11.974;2022-11-04T03:07:01;10.20;;;5.80;;
9970;SDS011;5026;51.494;11.974;2022-11-04T03:09:32;7.43;;;5.13;;
9970;SDS011;5026;51.494;11.974;2022-11-04T03:12:03;12.27;;;6.03;;
9970;SDS011;5026;51.494;11.974;2022-11-04T03:14:35;10.03;;;5.87;;
9970;SDS011;5026;51.494;11.974;2022-11-04T03:17:08;8.23;;;5.40;;
9970;SDS011;5026;51.494;11.974;2022-11-04T03:19:41;9.40;;;5.47;;
9970;SDS011;5026;51.494;11.974;2022-11-04T03:22:15;10.17;;;5.80;;
9970;SDS011;5026;51.494;11.974;2022-11-04T03:24:44;9.00;;;5.90;;
9970;SDS011;5026;51.494;11.974;2022-11-04T03:27:15;9.73;;;5.50;;
9970;SDS011;5026;51.494;11.974;2022-11-04T03:29:54;14.70;;;6.03;;
9970;SDS011;5026;51.494;11.974;2022-11-04T03:32:27;8.80;;;5.07;;
9970;SDS011;5026;51.494;11.974;2022-11-04T03:35:02;7.13;;;5.40;;
9970;SDS011;5026;51.494;11.974;2022-11-04T03:37:30;9.13;;;5.40;;
9970;SDS011;5026;51.494;11.974;2022-11-04T03:39:57;11.70;;;5.57;;
9970;SDS011;5026;51.494;11.974;2022-11-04T03:42:24;11.90;;;5.57;;
9970;SDS011;5026;51.494;11.974;2022-11-04T03:44:53;8.83;;;5.47;;
9970;SDS011;5026;51.494;11.974;2022-11-04T03:47:22;9.97;;;5.60;;
9970;SDS011;5026;51.494;11.974;2022-11-04T03:49:53;12.07;;;6.50;;
9970;SDS011;5026;51.494;11.974;2022-11-04T03:52:26;11.27;;;5.67;;
9970;SDS011;5026;51.494;11.974;2022-11-04T03:54:53;8.97;;;5.70;;
9970;SDS011;5026;51.494;11.974;2022-11-04T03:57:30;11.13;;;5.90;;
9970;SDS011;5026;51.494;11.974;2022-11-04T04:00:13;9.97;;;5.93;;
9970;SDS011;5026;51.494;11.974;2022-11-04T04:05:29;8.47;;;5.50;;
9970;SDS011;5026;51.494;11.974;2022-11-04T04:08:02;10.17;;;5.40;;
9970;SDS011;5026;51.494;11.974;2022-11-04T04:10:38;10.43;;;6.07;;
9970;SDS011;5026;51.494;11.974;2022-11-04T04:13:19;6.83;;;5.03;;
9970;SDS011;5026;51.494;11.974;2022-11-04T04:15:54;8.10;;;5.53;;
9970;SDS011;5026;51.494;11.974;2022-11-04T04:18:28;8.50;;;5.77;;
9970;SDS011;5026;51.494;11.974;2022-11-04T04:21:00;9.63;;;5.30;;
9970;SDS011;5026;51.494;11.974;2022-11-04T04:23:36;11.33;;;6.27;;
9970;SDS011;5026;51.494;11.974;2022-11-04T04:26:22;10.37;;;5.93;;
9970;SDS011;5026;51.494;11.974;2022-11-04T04:29:07;9.30;;;6.10;;
9970;SDS011;5026;51.494;11.974;2022-11-04T04:31:35;7.40;;;5.67;;
9970;SDS011;5026;51.494;11.974;2022-11-04T04:34:17;8.43;;;5.50;;
9970;SDS011;5026;51.494;11.974;2022-11-04T04:36:48;9.20;;;5.23;;
9970;SDS011;5026;51.494;11.974;2022-11-04T04:39:18;11.50;;;5.73;;
9970;SDS011;5026;51.494;11.974;2022-11-04T04:42:05;7.23;;;5.43;;
9970;SDS011;5026;51.494;11.974;2022-11-04T04:44:51;9.60;;;5.30;;
9970;SDS011;5026;51.494;11.974;2022-11-04T04:47:40;10.47;;;5.60;;
9970;SDS011;5026;51.494;11.974;2022-11-04T04:50:09;8.57;;;5.23;;
9970;SDS011;5026;51.494;11.974;2022-11-04T04:52:40;9.20;;;5.40;;
9970;SDS011;5026;51.494;11.974;2022-11-04T04:55:10;8.33;;;5.60;;
9970;SDS011;5026;51.494;11.974;2022-11-04T04:57:38;11.77;;;5.73;;
9970;SDS011;5026;51.494;11.974;2022-11-04T05:00:06;10.20;;;5.77;;
9970;SDS011;5026;51.494;11.974;2022-11-04T05:02:34;10.23;;;5.97;;
9970;SDS011;5026;51.494;11.974;2022-11-04T05:05:01;11.37;;;5.70;;
9970;SDS011;5026;51.494;11.974;2022-11-04T05:07:29;6.70;;;5.27;;
9970;SDS011;5026;51.494;11.974;2022-11-04T05:10:05;10.30;;;5.90;;
9970;SDS011;5026;51.494;11.974;2022-11-04T05:12:33;10.80;;;6.23;;
9970;SDS011;5026;51.494;11.974;2022-11-04T05:15:18;8.80;;;5.37;;
9970;SDS011;5026;51.494;11.974;2022-11-04T05:17:45;10.93;;;6.33;;
9970;SDS011;5026;51.494;11.974;2022-11-04T05:20:13;9.40;;;5.60;;
9970;SDS011;5026;51.494;11.974;2022-11-04T05:22:40;9.13;;;5.37;;
9970;SDS011;5026;51.494;11.974;2022-11-04T05:25:09;8.77;;;6.07;;
9970;SDS011;5026;51.494;11.974;2022-11-04T05:27:35;11.60;;;5.93;;
9970;SDS011;5026;51.494;11.974;2022-11-04T05:30:03;8.93;;;5.40;;
9970;SDS011;5026;51.494;11.974;2022-11-04T05:32:31;11.47;;;5.20;;
9970;SDS011;5026;51.494;11.974;2022-11-04T05:34:58;11.73;;;6.13;;
9970;SDS011;5026;51.494;11.974;2022-11-04T05:37:25;9.97;;;6.13;;
9970;SDS011;5026;51.494;11.974;2022-11-04T05:39:52;9.20;;;6.20;;
9970;SDS011;5026;51.494;11.974;2022-11-04T05:42:25;7.90;;;5.87;;
9970;SDS011;5026;51.494;11.974;2022-11-04T05:44:53;8.07;;;6.00;;
9970;SDS011;5026;51.494;11.974;2022-11-04T05:47:20;8.00;;;6.07;;
9970;SDS011;5026;51.494;11.974;2022-11-04T05:49:47;8.40;;;5.90;;
9970;SDS011;5026;51.494;11.974;2022-11-04T05:52:14;9.80;;;6.60;;
9970;SDS011;5026;51.494;11.974;2022-11-04T05:54:41;9.30;;;6.03;;
9970;SDS011;5026;51.494;11.974;2022-11-04T05:57:08;8.90;;;5.90;;
9970;SDS011;5026;51.494;11.974;2022-11-04T05:59:37;15.37;;;9.70;;
9970;SDS011;5026;51.494;11.974;2022-11-04T06:02:04;9.93;;;6.33;;
9970;SDS011;5026;51.494;11.974;2022-11-04T06:04:31;10.80;;;6.20;;
9970;SDS011;5026;51.494;11.974;2022-11-04T06:06:58;10.03;;;6.10;;
9970;SDS011;5026;51.494;11.974;2022-11-04T06:09:25;8.83;;;6.40;;
9970;SDS011;5026;51.494;11.974;2022-11-04T06:12:04;10.98;;;6.18;;
9970;SDS011;5026;51.494;11.974;2022-11-04T06:14:32;10.13;;;6.00;;
9970;SDS011;5026;51.494;11.974;2022-11-04T06:17:01;7.83;;;5.97;;
9970;SDS011;5026;51.494;11.974;2022-11-04T06:19:28;7.97;;;6.00;;
9970;SDS011;5026;51.494;11.974;2022-11-04T06:21:55;8.97;;;5.90;;
9970;SDS011;5026;51.494;11.974;2022-11-04T06:24:23;7.40;;;5.53;;
9970;SDS011;5026;51.494;11.974;2022-11-04T06:26:49;8.80;;;5.80;;
9970;SDS011;5026;51.494;11.974;2022-11-04T06:29:17;6.47;;;5.50;;
9970;SDS011;5026;51.494;11.974;2022-11-04T06:31:43;7.77;;;5.40;;
9970;SDS011;5026;51.494;11.974;2022-11-04T06:34:12;7.93;;;5.33;;
9970;SDS011;5026;51.494;11.974;2022-11-04T06:36:41;9.67;;;5.87;;
9970;SDS011;5026;51.494;11.974;2022-11-04T06:39:08;8.60;;;5.80;;
9970;SDS011;5026;51.494;11.974;2022-11-04T06:41:36;8.77;;;5.93;;
9970;SDS011;5026;51.494;11.974;2022-11-04T06:44:03;7.33;;;5.30;;
9970;SDS011;5026;51.494;11.974;2022-11-04T06:46:30;7.83;;;5.33;;
9970;SDS011;5026;51.494;11.974;2022-11-04T06:49:00;7.70;;;5.40;;
9970;SDS011;5026;51.494;11.974;2022-11-04T06:51:28;8.30;;;6.10;;
9970;SDS011;5026;51.494;11.974;2022-11-04T06:53:56;9.33;;;6.00;;
9970;SDS011;5026;51.494;11.974;2022-11-04T06:56:23;9.57;;;6.22;;
9970;SDS011;5026;51.494;11.974;2022-11-04T06:58:50;7.80;;;5.72;;
9970;SDS011;5026;51.494;11.974;2022-11-04T07:01:19;9.13;;;6.10;;
9970;SDS011;5026;51.494;11.974;2022-11-04T07:03:47;8.45;;;5.90;;
9970;SDS011;5026;51.494;11.974;2022-11-04T07:06:14;10.07;;;6.13;;
9970;SDS011;5026;51.494;11.974;2022-11-04T07:08:43;8.53;;;6.00;;
9970;SDS011;5026;51.494;11.974;2022-11-04T07:11:10;7.53;;;5.67;;
9970;SDS011;5026;51.494;11.974;2022-11-04T07:13:36;8.30;;;6.10;;
9970;SDS011;5026;51.494;11.974;2022-11-04T07:16:05;9.83;;;6.33;;
9970;SDS011;5026;51.494;11.974;2022-11-04T07:18:33;7.57;;;5.32;;
9970;SDS011;5026;51.494;11.974;2022-11-04T07:21:00;9.77;;;6.30;;
9970;SDS011;5026;51.494;11.974;2022-11-04T07:23:27;8.15;;;5.57;;
9970;SDS011;5026;51.494;11.974;2022-11-04T07:25:59;7.10;;;5.05;;
9970;SDS011;5026;51.494;11.974;2022-11-04T07:28:26;7.93;;;5.57;;
9970;SDS011;5026;51.494;11.974;2022-11-04T07:30:54;6.47;;;4.93;;
9970;SDS011;5026;51.494;11.974;2022-11-04T07:33:22;13.45;;;5.35;;
9970;SDS011;5026;51.494;11.974;2022-11-04T07:35:49;6.35;;;5.32;;
9970;SDS011;5026;51.494;11.974;2022-11-04T07:38:17;8.13;;;5.40;;
9970;SDS011;5026;51.494;11.974;2022-11-04T07:40:44;7.57;;;4.75;;
9970;SDS011;5026;51.494;11.974;2022-11-04T07:43:12;8.10;;;5.22;;
9970;SDS011;5026;51.494;11.974;2022-11-04T07:45:39;11.60;;;6.70;;
9970;SDS011;5026;51.494;11.974;2022-11-04T07:48:06;11.63;;;7.97;;
9970;SDS011;5026;51.494;11.974;2022-11-04T07:50:33;13.00;;;6.63;;
9970;SDS011;5026;51.494;11.974;2022-11-04T07:53:03;8.43;;;5.97;;
9970;SDS011;5026;51.494;11.974;2022-11-04T07:55:29;10.13;;;6.10;;
9970;SDS011;5026;51.494;11.974;2022-11-04T07:57:56;10.67;;;6.00;;
9970;SDS011;5026;51.494;11.974;2022-11-04T08:00:25;7.78;;;4.93;;
9970;SDS011;5026;51.494;11.974;2022-11-04T08:02:52;7.73;;;5.23;;
9970;SDS011;5026;51.494;11.974;2022-11-04T08:05:19;8.23;;;5.60;;
9970;SDS011;5026;51.494;11.974;2022-11-04T08:07:46;8.57;;;5.40;;
9970;SDS011;5026;51.494;11.974;2022-11-04T08:10:13;8.20;;;5.38;;
9970;SDS011;5026;51.494;11.974;2022-11-04T08:12:40;7.00;;;5.03;;
9970;SDS011;5026;51.494;11.974;2022-11-04T08:15:07;6.77;;;5.30;;
9970;SDS011;5026;51.494;11.974;2022-11-04T08:17:36;7.27;;;4.63;;
9970;SDS011;5026;51.494;11.974;2022-11-04T08:20:03;8.43;;;4.77;;
9970;SDS011;5026;51.494;11.974;2022-11-04T08:22:30;5.83;;;4.00;;
9970;SDS011;5026;51.494;11.974;2022-11-04T08:24:57;4.93;;;3.90;;
9970;SDS011;5026;51.494;11.974;2022-11-04T08:27:24;4.83;;;4.23;;
9970;SDS011;5026;51.494;11.974;2022-11-04T08:29:51;6.47;;;4.47;;
9970;SDS011;5026;51.494;11.974;2022-11-04T08:32:18;4.43;;;3.87;;
9970;SDS011;5026;51.494;11.974;2022-11-04T08:34:46;5.70;;;4.13;;
9970;SDS011;5026;51.494;11.974;2022-11-04T08:37:14;5.47;;;3.87;;
9970;SDS011;5026;51.494;11.974;2022-11-04T08:39:41;4.40;;;3.60;;
9970;SDS011;5026;51.494;11.974;2022-11-04T08:42:09;6.20;;;3.80;;
9970;SDS011;5026;51.494;11.974;2022-11-04T08:44:36;4.73;;;3.27;;
9970;SDS011;5026;51.494;11.974;2022-11-04T08:47:04;4.23;;;3.50;;
9970;SDS011;5026;51.494;11.974;2022-11-04T08:49:35;4.00;;;2.83;;
9970;SDS011;5026;51.494;11.974;2022-11-04T08:52:04;3.93;;;2.90;;
9970;SDS011;5026;51.494;11.974;2022-11-04T08:54:31;3.60;;;2.80;;
9970;SDS011;5026;51.494;11.974;2022-11-04T08:56:58;3.60;;;2.75;;
9970;SDS011;5026;51.494;11.974;2022-11-04T08:59:25;2.70;;;2.50;;
9970;SDS011;5026;51.494;11.974;2022-11-04T09:01:52;3.83;;;2.60;;
9970;SDS011;5026;51.494;11.974;2022-11-04T09:04:19;5.18;;;2.88;;
9970;SDS011;5026;51.494;11.974;2022-11-04T09:06:46;3.38;;;3.08;;
9970;SDS011;5026;51.494;11.974;2022-11-04T09:09:16;6.03;;;3.50;;
9970;SDS011;5026;51.494;11.974;2022-11-04T09:11:43;3.05;;;2.78;;
9970;SDS011;5026;51.494;11.974;2022-11-04T09:14:11;5.53;;;3.13;;
9970;SDS011;5026;51.494;11.974;2022-11-04T09:16:39;3.30;;;2.53;;
9970;SDS011;5026;51.494;11.974;2022-11-04T09:19:06;3.33;;;2.58;;
9970;SDS011;5026;51.494;11.974;2022-11-04T09:21:33;4.00;;;2.75;;
9970;SDS011;5026;51.494;11.974;2022-11-04T09:24:00;3.00;;;2.65;;
9970;SDS011;5026;51.494;11.974;2022-11-04T09:26:28;3.20;;;2.78;;
9970;SDS011;5026;51.494;11.974;2022-11-04T09:28:56;3.42;;;2.50;;
9970;SDS011;5026;51.494;11.974;2022-11-04T09:31:24;2.75;;;2.47;;
9970;SDS011;5026;51.494;11.974;2022-11-04T09:33:53;3.08;;;2.50;;
9970;SDS011;5026;51.494;11.974;2022-11-04T09:36:20;3.58;;;2.67;;
9970;SDS011;5026;51.494;11.974;2022-11-04T09:38:48;4.38;;;2.53;;
9970;SDS011;5026;51.494;11.974;2022-11-04T09:41:35;3.78;;;2.95;;
9970;SDS011;5026;51.494;11.974;2022-11-04T09:44:20;6.28;;;3.42;;
9970;SDS011;5026;51.494;11.974;2022-11-04T09:46:51;2.40;;;2.20;;
9970;SDS011;5026;51.494;11.974;2022-11-04T09:49:20;4.50;;;2.83;;
9970;SDS011;5026;51.494;11.974;2022-11-04T09:51:48;3.45;;;3.13;;
9970;SDS011;5026;51.494;11.974;2022-11-04T09:54:17;5.45;;;2.72;;
9970;SDS011;5026;51.494;11.974;2022-11-04T09:56:49;4.40;;;2.80;;
9970;SDS011;5026;51.494;11.974;2022-11-04T09:59:23;2.88;;;2.67;;
9970;SDS011;5026;51.494;11.974;2022-11-04T10:01:55;6.07;;;3.75;;
9970;SDS011;5026;51.494;11.974;2022-11-04T10:04:32;3.10;;;2.80;;
9970;SDS011;5026;51.494;11.974;2022-11-04T10:07:13;4.97;;;2.53;;
9970;SDS011;5026;51.494;11.974;2022-11-04T10:09:56;7.70;;;2.70;;
9970;SDS011;5026;51.494;11.974;2022-11-04T10:12:50;7.13;;;3.50;;
9970;SDS011;5026;51.494;11.974;2022-11-04T10:15:35;3.05;;;2.58;;
9970;SDS011;5026;51.494;11.974;2022-11-04T10:18:28;4.50;;;2.65;;
9970;SDS011;5026;51.494;11.974;2022-11-04T10:21:10;4.75;;;2.55;;
9970;SDS011;5026;51.494;11.974;2022-11-04T10:23:47;3.47;;;2.40;;
9970;SDS011;5026;51.494;11.974;2022-11-04T10:26:31;5.88;;;2.40;;
9970;SDS011;5026;51.494;11.974;2022-11-04T10:29:05;7.57;;;3.10;;
9970;SDS011;5026;51.494;11.974;2022-11-04T10:31:38;4.40;;;2.77;;
9970;SDS011;5026;51.494;11.974;2022-11-04T10:34:10;7.23;;;2.47;;
9970;SDS011;5026;51.494;11.974;2022-11-04T10:36:48;5.10;;;2.55;;
9970;SDS011;5026;51.494;11.974;2022-11-04T10:39:19;3.30;;;2.80;;
9970;SDS011;5026;51.494;11.974;2022-11-04T10:41:51;5.32;;;2.75;;
9970;SDS011;5026;51.494;11.974;2022-11-04T10:44:20;5.43;;;2.83;;
9970;SDS011;5026;51.494;11.974;2022-11-04T10:46:51;5.43;;;2.47;;
9970;SDS011;5026;51.494;11.974;2022-11-04T10:49:37;2.75;;;2.30;;
9970;SDS011;5026;51.494;11.974;2022-11-04T10:52:11;7.60;;;2.78;;
9970;SDS011;5026;51.494;11.974;2022-11-04T10:54:39;2.40;;;2.20;;
9970;SDS011;5026;51.494;11.974;2022-11-04T10:57:08;3.13;;;2.67;;
9970;SDS011;5026;51.494;11.974;2022-11-04T10:59:41;4.53;;;2.88;;
9970;SDS011;5026;51.494;11.974;2022-11-04T11:02:14;2.08;;;1.80;;
9970;SDS011;5026;51.494;11.974;2022-11-04T11:04:41;3.93;;;2.40;;
9970;SDS011;5026;51.494;11.974;2022-11-04T11:07:11;2.90;;;2.28;;
9970;SDS011;5026;51.494;11.974;2022-11-04T11:09:47;5.35;;;2.05;;
9970;SDS011;5026;51.494;11.974;2022-11-04T11:12:17;5.72;;;2.13;;
9970;SDS011;5026;51.494;11.974;2022-11-04T11:14:54;2.90;;;2.03;;
9970;SDS011;5026;51.494;11.974;2022-11-04T11:17:22;2.90;;;2.03;;
9970;SDS011;5026;51.494;11.974;2022-11-04T11:20:00;3.38;;;2.17;;
9970;SDS011;5026;51.494;11.974;2022-11-04T11:22:35;4.68;;;2.13;;
9970;SDS011;5026;51.494;11.974;2022-11-04T11:25:11;4.18;;;2.30;;
9970;SDS011;5026;51.494;11.974;2022-11-04T11:27:39;4.55;;;2.30;;
9970;SDS011;5026;51.494;11.974;2022-11-04T11:30:19;3.07;;;2.20;;
9970;SDS011;5026;51.494;11.974;2022-11-04T11:32:54;4.68;;;2.28;;
9970;SDS011;5026;51.494;11.974;2022-11-04T11:35:28;4.27;;;2.10;;
9970;SDS011;5026;51.494;11.974;2022-11-04T11:37:58;3.53;;;1.90;;
9970;SDS011;5026;51.494;11.974;2022-11-04T11:40:30;2.03;;;1.53;;
9970;SDS011;5026;51.494;11.974;2022-11-04T11:43:02;1.88;;;1.58;;
9970;SDS011;5026;51.494;11.974;2022-11-04T11:45:32;2.50;;;2.23;;
9970;SDS011;5026;51.494;11.974;2022-11-04T11:47:59;5.63;;;2.00;;
9970;SDS011;5026;51.494;11.974;2022-11-04T11:50:26;9.02;;;2.40;;
9970;SDS011;5026;51.494;11.974;2022-11-04T11:53:12;6.30;;;2.97;;
9970;SDS011;5026;51.494;11.974;2022-11-04T11:55:45;17.02;;;2.38;;
9970;SDS011;5026;51.494;11.974;2022-11-04T11:58:21;2.65;;;1.85;;
9970;SDS011;5026;51.494;11.974;2022-11-04T12:00:56;6.00;;;1.90;;
9970;SDS011;5026;51.494;11.974;2022-11-04T12:03:28;3.33;;;1.80;;
9970;SDS011;5026;51.494;11.974;2022-11-04T12:06:04;2.40;;;1.47;;
9970;SDS011;5026;51.494;11.974;2022-11-04T12:08:43;2.30;;;1.40;;
9970;SDS011;5026;51.494;11.974;2022-11-04T12:11:19;4.13;;;1.77;;
9970;SDS011;5026;51.494;11.974;2022-11-04T12:13:49;3.97;;;2.00;;
9970;SDS011;5026;51.494;11.974;2022-11-04T12:16:23;6.93;;;2.10;;
9970;SDS011;5026;51.494;11.974;2022-11-04T12:19:01;3.23;;;1.60;;
9970;SDS011;5026;51.494;11.974;2022-11-04T12:21:36;5.15;;;2.10;;
9970;SDS011;5026;51.494;11.974;2022-11-04T12:24:09;4.87;;;1.53;;
9970;SDS011;5026;51.494;11.974;2022-11-04T12:26:46;4.20;;;1.67;;
9970;SDS011;5026;51.494;11.974;2022-11-04T12:29:23;3.45;;;1.70;;
9970;SDS011;5026;51.494;11.974;2022-11-04T12:32:05;4.70;;;1.77;;
9970;SDS011;5026;51.494;11.974;2022-11-04T12:34:48;3.78;;;2.08;;
9970;SDS011;5026;51.494;11.974;2022-11-04T12:37:29;4.18;;;2.83;;
9970;SDS011;5026;51.494;11.974;2022-11-04T12:40:08;6.10;;;2.00;;
9970;SDS011;5026;51.494;11.974;2022-11-04T12:42:44;3.50;;;2.05;;
9970;SDS011;5026;51.494;11.974;2022-11-04T12:45:28;4.38;;;1.65;;
9970;SDS011;5026;51.494;11.974;2022-11-04T12:48:05;4.13;;;1.58;;
9970;SDS011;5026;51.494;11.974;2022-11-04T12:50:37;4.13;;;1.70;;
9970;SDS011;5026;51.494;11.974;2022-11-04T12:53:20;2.20;;;1.60;;
9970;SDS011;5026;51.494;11.974;2022-11-04T12:56:08;4.63;;;2.08;;
9970;SDS011;5026;51.494;11.974;2022-11-04T12:58:38;2.20;;;1.77;;
9970;SDS011;5026;51.494;11.974;2022-11-04T13:01:24;2.90;;;1.80;;
9970;SDS011;5026;51.494;11.974;2022-11-04T13:03:59;4.68;;;1.60;;
9970;SDS011;5026;51.494;11.974;2022-11-04T13:06:32;4.07;;;1.83;;
9970;SDS011;5026;51.494;11.974;2022-11-04T13:09:04;3.05;;;1.35;;
9970;SDS011;5026;51.494;11.974;2022-11-04T13:11:36;4.30;;;1.67;;
9970;SDS011;5026;51.494;11.974;2022-11-04T13:14:08;2.50;;;1.67;;
9970;SDS011;5026;51.494;11.974;2022-11-04T13:16:43;3.42;;;1.52;;
9970;SDS011;5026;51.494;11.974;2022-11-04T13:19:19;1.65;;;1.38;;
9970;SDS011;5026;51.494;11.974;2022-11-04T13:21:50;4.68;;;1.60;;
9970;SDS011;5026;51.494;11.974;2022-11-04T13:24:19;2.35;;;1.38;;
9970;SDS011;5026;51.494;11.974;2022-11-04T13:26:54;4.40;;;2.10;;
9970;SDS011;5026;51.494;11.974;2022-11-04T13:29:23;3.67;;;1.50;;
9970;SDS011;5026;51.494;11.974;2022-11-04T13:31:51;4.35;;;1.52;;
9970;SDS011;5026;51.494;11.974;2022-11-04T13:34:25;3.15;;;1.38;;
9970;SDS011;5026;51.494;11.974;2022-11-04T13:37:04;3.95;;;1.88;;
9970;SDS011;5026;51.494;11.974;2022-11-04T13:39:38;4.07;;;1.98;;
9970;SDS011;5026;51.494;11.974;2022-11-04T13:45:12;3.42;;;1.25;;
9970;SDS011;5026;51.494;11.974;2022-11-04T13:47:44;3.63;;;1.10;;
9970;SDS011;5026;51.494;11.974;2022-11-04T13:50:27;1.98;;;1.15;;
9970;SDS011;5026;51.494;11.974;2022-11-04T13:52:59;1.55;;;1.23;;
9970;SDS011;5026;51.494;11.974;2022-11-04T13:55:27;4.15;;;1.38;;
9970;SDS011;5026;51.494;11.974;2022-11-04T13:57:54;2.42;;;1.30;;
9970;SDS011;5026;51.494;11.974;2022-11-04T14:00:24;3.97;;;1.20;;
9970;SDS011;5026;51.494;11.974;2022-11-04T14:02:53;2.20;;;1.30;;
9970;SDS011;5026;51.494;11.974;2022-11-04T14:08:36;3.20;;;1.70;;
9970;SDS011;5026;51.494;11.974;2022-11-04T14:14:41;4.30;;;1.30;;
9970;SDS011;5026;51.494;11.974;2022-11-04T14:20:10;2.03;;;1.40;;
9970;SDS011;5026;51.494;11.974;2022-11-04T14:22:50;1.92;;;1.23;;
9970;SDS011;5026;51.494;11.974;2022-11-04T14:25:22;4.47;;;1.42;;
9970;SDS011;5026;51.494;11.974;2022-11-04T14:27:52;2.25;;;1.42;;
9970;SDS011;5026;51.494;11.974;2022-11-04T14:33:20;3.28;;;1.98;;
9970;SDS011;5026;51.494;11.974;2022-11-04T14:35:54;2.88;;;1.63;;
9970;SDS011;5026;51.494;11.974;2022-11-04T14:38:25;3.75;;;1.83;;
9970;SDS011;5026;51.494;11.974;2022-11-04T14:43:43;3.47;;;2.05;;
9970;SDS011;5026;51.494;11.974;2022-11-04T14:46:11;15.70;;;8.93;;
9970;SDS011;5026;51.494;11.974;2022-11-04T14:48:45;4.45;;;2.70;;
9970;SDS011;5026;51.494;11.974;2022-11-04T14:51:20;3.17;;;2.08;;
9970;SDS011;5026;51.494;11.974;2022-11-04T14:53:53;4.53;;;2.05;;
9970;SDS011;5026;51.494;11.974;2022-11-04T14:56:27;3.03;;;1.80;;
9970;SDS011;5026;51.494;11.974;2022-11-04T14:58:54;3.28;;;1.60;;
9970;SDS011;5026;51.494;11.974;2022-11-04T15:01:23;2.55;;;1.45;;
9970;SDS011;5026;51.494;11.974;2022-11-04T15:03:51;4.30;;;1.80;;
9970;SDS011;5026;51.494;11.974;2022-11-04T15:06:25;4.53;;;1.88;;
9970;SDS011;5026;51.494;11.974;2022-11-04T15:08:55;3.13;;;1.73;;
9970;SDS011;5026;51.494;11.974;2022-11-04T15:11:24;3.37;;;1.60;;
9970;SDS011;5026;51.494;11.974;2022-11-04T15:14:14;4.90;;;2.22;;
9970;SDS011;5026;51.494;11.974;2022-11-04T15:16:43;4.97;;;1.97;;
9970;SDS011;5026;51.494;11.974;2022-11-04T15:19:13;4.77;;;1.90;;
9970;SDS011;5026;51.494;11.974;2022-11-04T15:21:46;5.97;;;2.07;;
9970;SDS011;5026;51.494;11.974;2022-11-04T15:24:16;5.60;;;2.17;;
9970;SDS011;5026;51.494;11.974;2022-11-04T15:26:43;5.07;;;2.40;;
9970;SDS011;5026;51.494;11.974;2022-11-04T15:29:16;3.80;;;2.60;;
9970;SDS011;5026;51.494;11.974;2022-11-04T15:31:50;5.10;;;2.43;;
9970;SDS011;5026;51.494;11.974;2022-11-04T15:34:19;3.97;;;2.50;;
9970;SDS011;5026;51.494;11.974;2022-11-04T15:36:47;3.80;;;2.87;;
9970;SDS011;5026;51.494;11.974;2022-11-04T15:39:17;5.17;;;2.70;;
9970;SDS011;5026;51.494;11.974;2022-11-04T15:41:46;6.83;;;3.73;;
9970;SDS011;5026;51.494;11.974;2022-11-04T15:44:33;4.83;;;2.93;;
9970;SDS011;5026;51.494;11.974;2022-11-04T15:47:02;4.73;;;2.93;;
9970;SDS011;5026;51.494;11.974;2022-11-04T15:49:46;6.30;;;3.40;;
9970;SDS011;5026;51.494;11.974;2022-11-04T15:52:15;6.43;;;3.60;;